createdAt,value
2023-09-17T00:00:21.987Z,12.00
2023-09-17T00:00:30.434Z,12.02
2023-09-17T00:01:22.142Z,12.00
2023-09-17T00:01:30.515Z,12.02
2023-09-17T00:02:22.077Z,12.00
2023-09-17T00:02:30.480Z,12.00
2023-09-17T00:08:22.067Z,11.90
2023-09-17T00:08:52.771Z,12.04
2023-09-17T00:09:22.108Z,11.92
2023-09-17T00:09:52.770Z,12.06
2023-09-17T00:10:52.802Z,12.06
2023-09-17T00:11:52.700Z,11.99
2023-09-17T00:12:22.081Z,11.91
2023-09-17T00:12:52.713Z,11.96
2023-09-17T00:13:22.124Z,11.95
2023-09-17T00:13:52.995Z,12.04
2023-09-17T00:14:22.114Z,11.96
2023-09-17T00:15:22.127Z,11.96
2023-09-17T00:16:22.220Z,11.97
2023-09-17T00:17:22.217Z,11.95
2023-09-17T00:17:52.835Z,12.06
2023-09-17T00:18:22.172Z,11.93
2023-09-17T00:18:30.583Z,12.00
2023-09-17T00:19:22.261Z,11.93
2023-09-17T00:19:30.618Z,12.00
2023-09-17T00:20:22.201Z,11.90
2023-09-17T00:20:30.617Z,11.94
2023-09-17T00:21:22.209Z,11.90
2023-09-17T00:21:30.619Z,11.91
2023-09-17T00:22:22.225Z,11.87
2023-09-17T00:22:30.662Z,11.88
2023-09-17T00:23:30.665Z,11.86
2023-09-17T00:24:30.674Z,11.84
2023-09-17T00:25:30.724Z,11.81
2023-09-17T00:26:30.684Z,11.81
2023-09-17T00:27:30.686Z,11.84
2023-09-17T00:28:30.733Z,11.82
2023-09-17T00:29:52.850Z,11.74
2023-09-17T00:30:52.934Z,11.74
2023-09-17T00:31:52.918Z,11.72
2023-09-17T00:32:52.939Z,11.72
2023-09-17T00:33:52.896Z,11.67
2023-09-17T00:34:52.868Z,11.74
2023-09-17T00:35:52.884Z,11.74
2023-09-17T00:36:52.923Z,11.71
2023-09-17T00:37:53.012Z,11.65
2023-09-17T00:38:52.988Z,11.68
2023-09-17T00:39:52.941Z,11.68
2023-09-17T00:40:52.955Z,11.68
2023-09-17T00:41:52.966Z,11.71
2023-09-17T00:42:52.973Z,11.74
2023-09-17T00:43:53.423Z,11.77
2023-09-17T00:44:52.991Z,11.75
2023-09-17T00:56:53.090Z,11.50
2023-09-17T00:57:53.094Z,11.50
2023-09-17T00:58:53.106Z,11.46
2023-09-17T00:59:53.122Z,11.44
2023-09-17T01:00:53.130Z,11.47
2023-09-17T01:01:53.277Z,11.47
2023-09-17T01:02:53.319Z,11.42
2023-09-17T01:03:53.588Z,11.42
2023-09-17T01:04:53.213Z,11.39
2023-09-17T01:05:53.202Z,11.39
2023-09-17T01:06:53.217Z,11.39
2023-09-17T01:07:53.333Z,11.53
2023-09-17T01:08:53.229Z,11.55
2023-09-17T01:09:22.613Z,11.79
2023-09-17T01:09:53.232Z,11.53
2023-09-17T01:10:22.701Z,11.79
2023-09-17T01:10:53.237Z,11.53
2023-09-17T01:11:22.672Z,11.74
2023-09-17T01:11:53.233Z,11.49
2023-09-17T01:12:22.679Z,11.72
2023-09-17T01:12:53.249Z,11.48
2023-09-17T01:13:22.695Z,11.70
2023-09-17T01:13:53.854Z,11.48
2023-09-17T01:14:22.687Z,11.70
2023-09-17T01:14:53.279Z,11.51
2023-09-17T01:15:22.699Z,11.73
2023-09-17T01:15:53.360Z,11.49
2023-09-17T01:16:22.819Z,11.73
2023-09-17T01:16:53.446Z,11.47
2023-09-17T01:17:53.330Z,11.46
2023-09-17T01:18:22.708Z,11.72
2023-09-17T01:18:53.311Z,11.46
2023-09-17T01:19:22.843Z,11.72
2023-09-17T01:19:53.318Z,11.40
2023-09-17T01:20:22.753Z,11.64
2023-09-17T01:20:53.323Z,11.40
2023-09-17T01:21:53.330Z,11.37
2023-09-17T01:22:31.208Z,11.44
2023-09-17T01:22:53.338Z,11.40
2023-09-17T01:23:31.187Z,11.42
2023-09-17T01:23:53.622Z,11.40
2023-09-17T01:24:31.201Z,11.42
2023-09-17T01:24:53.350Z,11.41
2023-09-17T01:25:31.256Z,11.46
2023-09-17T01:25:53.436Z,11.45
2023-09-17T01:26:31.237Z,11.49
2023-09-17T01:26:53.416Z,11.50
2023-09-17T01:27:31.244Z,11.57
2023-09-17T01:28:31.273Z,11.57
2023-09-17T01:29:31.251Z,11.57
2023-09-17T01:30:31.255Z,11.58
2023-09-17T01:31:31.295Z,11.58
2023-09-17T01:32:31.286Z,11.58
2023-09-17T01:33:31.301Z,11.58
2023-09-17T01:44:22.941Z,11.64
2023-09-17T01:45:22.947Z,11.64
2023-09-17T01:46:23.016Z,11.64
2023-09-17T01:46:31.425Z,11.59
2023-09-17T01:47:22.990Z,11.59
2023-09-17T01:47:31.414Z,11.57
2023-09-17T01:48:22.991Z,11.59
2023-09-17T01:48:31.400Z,11.55
2023-09-17T01:49:23.047Z,11.58
2023-09-17T01:49:31.408Z,11.55
2023-09-17T01:50:23.016Z,11.58
2023-09-17T01:50:31.435Z,11.55
2023-09-17T01:51:23.026Z,11.58
2023-09-17T01:51:31.450Z,11.56
2023-09-17T01:52:23.071Z,11.58
2023-09-17T01:52:31.472Z,11.56
2023-09-17T01:53:23.047Z,11.59
2023-09-17T01:53:31.445Z,11.56
2023-09-17T01:54:23.051Z,11.59
2023-09-17T01:54:31.458Z,11.53
2023-09-17T01:55:23.066Z,11.55
2023-09-17T01:55:31.485Z,11.53
2023-09-17T01:56:23.068Z,11.55
2023-09-17T01:56:31.465Z,11.46
2023-09-17T01:57:31.473Z,11.46
2023-09-17T01:58:31.501Z,11.48
2023-09-17T01:59:31.502Z,11.53
2023-09-17T02:00:31.511Z,11.52
2023-09-17T02:01:31.614Z,11.52
2023-09-17T02:02:31.601Z,11.52
2023-09-17T02:03:31.598Z,11.53
2023-09-17T02:04:31.575Z,11.51
2023-09-17T02:05:31.553Z,11.47
2023-09-17T02:06:31.555Z,11.44
2023-09-17T02:07:31.573Z,11.44
2023-09-17T02:08:31.568Z,11.46
2023-09-17T02:09:31.565Z,11.46
2023-09-17T02:10:31.623Z,11.46
2023-09-17T02:11:31.633Z,11.44
2023-09-17T02:11:53.722Z,11.25
2023-09-17T02:12:53.756Z,11.27
2023-09-17T02:16:53.869Z,11.25
2023-09-17T02:21:23.256Z,11.55
2023-09-17T02:22:23.305Z,11.56
2023-09-17T02:23:23.267Z,11.56
2023-09-17T02:24:23.287Z,11.56
2023-09-17T02:25:23.378Z,11.66
2023-09-17T02:26:23.319Z,11.70
2023-09-17T02:27:23.348Z,11.49
2023-09-17T02:34:31.790Z,11.31
2023-09-17T02:35:31.782Z,11.31
2023-09-17T02:36:31.779Z,11.36
2023-09-17T02:37:31.831Z,11.36
2023-09-17T02:38:31.804Z,11.36
2023-09-17T02:39:31.828Z,11.36
2023-09-17T02:42:31.812Z,11.35
2023-09-17T02:43:31.838Z,11.12
2023-09-17T02:44:31.822Z,11.12
2023-09-17T02:45:31.833Z,11.12
2023-09-17T02:45:54.024Z,11.21
2023-09-17T02:46:31.914Z,11.12
2023-09-17T02:46:54.078Z,11.21
2023-09-17T02:47:31.954Z,11.15
2023-09-17T02:47:54.089Z,11.25
2023-09-17T02:48:31.871Z,11.15
2023-09-17T02:49:31.912Z,11.15
2023-09-17T02:50:31.897Z,11.16
2023-09-17T02:51:31.909Z,11.14
2023-09-17T02:52:31.954Z,11.13
2023-09-17T02:53:31.929Z,11.12
2023-09-17T02:54:32.059Z,11.12
2023-09-17T02:55:31.958Z,11.12
2023-09-17T02:56:31.950Z,11.06
2023-09-17T02:57:31.952Z,11.06
2023-09-17T02:58:32.005Z,11.06
2023-09-17T02:59:23.536Z,11.09
2023-09-17T02:59:31.958Z,11.05
2023-09-17T03:00:23.549Z,11.08
2023-09-17T03:00:31.960Z,11.05
2023-09-17T03:01:23.589Z,11.08
2023-09-17T03:01:32.088Z,11.05
2023-09-17T03:02:23.657Z,11.06
2023-09-17T03:02:32.120Z,10.96
2023-09-17T03:03:23.630Z,11.06
2023-09-17T03:03:32.028Z,10.96
2023-09-17T03:04:23.574Z,11.06
2023-09-17T03:04:32.044Z,11.00
2023-09-17T03:05:23.559Z,11.13
2023-09-17T03:05:32.044Z,11.00
2023-09-17T03:06:23.559Z,11.17
2023-09-17T03:06:32.031Z,11.00
2023-09-17T03:07:23.606Z,11.17
2023-09-17T03:07:32.068Z,11.09
2023-09-17T03:08:23.649Z,11.20
2023-09-17T03:08:32.054Z,11.09
2023-09-17T03:09:23.592Z,11.20
2023-09-17T03:09:32.051Z,11.16
2023-09-17T03:10:23.666Z,11.25
2023-09-17T03:10:32.081Z,11.16
2023-09-17T03:11:32.058Z,11.07
2023-09-17T03:11:54.272Z,11.38
2023-09-17T03:12:32.065Z,11.17
2023-09-17T03:12:54.272Z,11.38
2023-09-17T03:13:32.115Z,11.17
2023-09-17T03:13:54.602Z,11.42
2023-09-17T03:14:32.083Z,11.17
2023-09-17T03:15:32.109Z,11.20
2023-09-17T03:16:32.161Z,11.20
2023-09-17T03:17:23.826Z,11.33
2023-09-17T03:17:32.181Z,11.20
2023-09-17T03:18:32.136Z,11.13
2023-09-17T03:19:32.149Z,11.13
2023-09-17T03:20:32.148Z,11.13
2023-09-17T03:21:32.390Z,11.11
2023-09-17T03:30:32.257Z,11.06
2023-09-17T03:31:32.362Z,11.04
2023-09-17T03:32:32.284Z,11.04
2023-09-17T03:33:32.424Z,11.04
2023-09-17T03:34:32.332Z,11.03
2023-09-17T03:35:32.285Z,11.02
2023-09-17T03:36:54.541Z,11.15
2023-09-17T03:44:23.889Z,11.21
2023-09-17T03:45:54.650Z,11.18
2023-09-17T03:46:54.671Z,11.18
2023-09-17T03:47:54.661Z,11.18
2023-09-17T03:48:54.641Z,11.18
2023-09-17T03:49:32.475Z,11.02
2023-09-17T03:49:54.739Z,11.18
2023-09-17T03:50:32.428Z,10.99
2023-09-17T03:51:32.456Z,10.99
2023-09-17T03:52:32.503Z,10.98
2023-09-17T03:53:32.461Z,10.98
2023-09-17T03:54:32.476Z,10.98
2023-09-17T03:55:32.523Z,10.96
2023-09-17T03:56:32.488Z,10.98
2023-09-17T03:57:32.506Z,10.90
2023-09-17T03:58:32.557Z,10.89
2023-09-17T03:59:32.525Z,10.89
2023-09-17T04:00:32.523Z,10.89
2023-09-17T04:01:24.083Z,11.02
2023-09-17T04:01:32.585Z,10.89
2023-09-17T04:02:24.156Z,10.93
2023-09-17T04:02:32.685Z,10.89
2023-09-17T04:03:24.119Z,10.93
2023-09-17T04:03:32.621Z,10.90
2023-09-17T04:04:24.113Z,10.94
2023-09-17T04:04:32.600Z,10.89
2023-09-17T04:05:24.095Z,10.95
2023-09-17T04:05:32.569Z,10.90
2023-09-17T04:06:24.098Z,10.97
2023-09-17T04:06:32.584Z,10.90
2023-09-17T04:07:24.130Z,10.97
2023-09-17T04:07:32.606Z,10.90
2023-09-17T04:08:24.137Z,10.96
2023-09-17T04:08:32.588Z,10.89
2023-09-17T04:09:24.137Z,10.95
2023-09-17T04:09:32.597Z,10.89
2023-09-17T04:10:24.146Z,10.75
2023-09-17T04:10:32.668Z,10.88
2023-09-17T04:11:24.145Z,10.75
2023-09-17T04:11:32.614Z,10.89
2023-09-17T04:12:32.620Z,10.89
2023-09-17T04:13:32.630Z,10.87
2023-09-17T04:14:32.639Z,10.89
2023-09-17T04:15:32.625Z,10.88
2023-09-17T04:16:32.768Z,10.88
2023-09-17T04:17:32.724Z,10.85
2023-09-17T04:18:32.688Z,10.84
2023-09-17T04:19:32.705Z,10.85
2023-09-17T04:20:32.688Z,10.85
2023-09-17T04:21:32.713Z,10.81
2023-09-17T04:22:32.730Z,10.81
2023-09-17T04:23:32.715Z,10.80
2023-09-17T04:24:24.263Z,10.64
2023-09-17T04:24:32.720Z,10.80
2023-09-17T04:25:24.291Z,10.64
2023-09-17T04:25:32.748Z,10.80
2023-09-17T04:26:24.266Z,10.64
2023-09-17T04:26:32.767Z,10.71
2023-09-17T04:27:24.272Z,10.64
2023-09-17T04:28:24.311Z,10.64
2023-09-17T04:29:24.306Z,10.63
2023-09-17T04:30:24.315Z,10.66
2023-09-17T04:31:24.386Z,10.66
2023-09-17T04:32:24.449Z,10.68
2023-09-17T04:36:55.042Z,10.44
2023-09-17T04:37:55.069Z,10.42
2023-09-17T04:38:55.053Z,10.39
2023-09-17T04:39:55.062Z,10.39
2023-09-17T04:40:55.098Z,10.42
2023-09-17T04:41:55.072Z,10.44
2023-09-17T04:42:55.094Z,10.46
2023-09-17T04:43:55.118Z,10.47
2023-09-17T04:44:55.099Z,10.48
2023-09-17T04:45:55.136Z,10.48
2023-09-17T04:46:55.216Z,10.51
2023-09-17T04:47:55.161Z,10.51
2023-09-17T04:52:24.534Z,10.64
2023-09-17T04:52:55.196Z,10.54
2023-09-17T05:00:55.243Z,10.54
2023-09-17T05:04:33.076Z,10.79
2023-09-17T05:05:33.062Z,10.82
2023-09-17T05:06:33.077Z,10.82
2023-09-17T05:07:33.125Z,10.86
2023-09-17T05:08:33.099Z,10.91
2023-09-17T05:09:33.117Z,10.91
2023-09-17T05:10:33.166Z,10.91
2023-09-17T05:11:33.112Z,10.92
2023-09-17T05:12:33.121Z,10.94
2023-09-17T05:13:33.153Z,10.96
2023-09-17T05:14:33.123Z,10.96
2023-09-17T05:15:33.147Z,10.96
2023-09-17T05:16:33.262Z,10.98
2023-09-17T05:17:33.171Z,10.98
2023-09-17T05:18:33.180Z,11.01
2023-09-17T05:19:33.217Z,10.96
2023-09-17T05:20:33.194Z,10.96
2023-09-17T05:21:33.199Z,10.96
2023-09-17T05:22:33.232Z,10.98
2023-09-17T05:23:33.208Z,11.02
2023-09-17T05:24:33.224Z,11.02
2023-09-17T05:25:33.258Z,11.04
2023-09-17T05:26:33.236Z,11.04
2023-09-17T05:27:33.246Z,11.12
2023-09-17T05:28:24.893Z,11.01
2023-09-17T05:28:33.340Z,11.12
2023-09-17T05:29:24.995Z,11.01
2023-09-17T05:29:33.341Z,11.16
2023-09-17T05:30:33.285Z,11.15
2023-09-17T05:31:24.929Z,10.97
2023-09-17T05:31:33.364Z,11.17
2023-09-17T05:32:33.482Z,11.12
2023-09-17T05:33:33.318Z,11.12
2023-09-17T05:34:33.344Z,11.03
2023-09-17T05:35:33.382Z,11.03
2023-09-17T05:38:33.356Z,11.10
2023-09-17T05:39:33.357Z,11.10
2023-09-17T05:40:33.406Z,11.11
2023-09-17T05:41:33.386Z,11.13
2023-09-17T05:42:33.405Z,11.13
2023-09-17T05:43:33.499Z,11.14
2023-09-17T05:44:33.433Z,11.17
2023-09-17T05:45:33.455Z,11.17
2023-09-17T05:46:33.481Z,11.17
2023-09-17T05:47:33.471Z,11.17
2023-09-17T05:48:33.454Z,11.17
2023-09-17T05:49:33.498Z,11.17
2023-09-17T05:50:59.355Z,11.02
2023-09-17T05:51:55.735Z,11.02
2023-09-17T05:52:25.092Z,11.06
2023-09-17T05:52:55.785Z,11.02
2023-09-17T05:53:25.085Z,11.08
2023-09-17T05:54:25.091Z,11.10
2023-09-17T05:55:25.189Z,11.15
2023-09-17T05:56:25.142Z,11.16
2023-09-17T05:59:55.805Z,11.17
2023-09-17T06:00:55.831Z,11.20
2023-09-17T06:01:55.882Z,11.14
2023-09-17T06:02:55.891Z,11.16
2023-09-17T06:14:33.699Z,11.34
2023-09-17T06:15:33.750Z,11.33
2023-09-17T06:16:46.221Z,11.37
2023-09-17T06:18:55.948Z,11.29
2023-09-17T06:19:33.732Z,11.37
2023-09-17T06:19:55.981Z,11.31
2023-09-17T06:20:33.750Z,11.42
2023-09-17T06:20:55.964Z,11.55
2023-09-17T06:21:33.772Z,11.49
2023-09-17T06:21:55.989Z,11.58
2023-09-17T06:22:33.781Z,11.49
2023-09-17T06:22:56.029Z,11.68
2023-09-17T06:23:33.810Z,11.50
2023-09-17T06:23:56.004Z,11.68
2023-09-17T06:24:33.802Z,11.50
2023-09-17T06:24:56.013Z,11.71
2023-09-17T06:25:33.848Z,11.53
2023-09-17T06:25:56.093Z,11.70
2023-09-17T06:44:56.167Z,12.46
2023-09-17T06:45:56.169Z,12.45
2023-09-17T06:46:25.789Z,12.28
2023-09-17T06:46:56.287Z,12.40
2023-09-17T06:47:25.685Z,12.33
2023-09-17T06:47:56.199Z,12.40
2023-09-17T06:48:25.650Z,12.43
2023-09-17T06:48:56.180Z,12.50
2023-09-17T06:49:25.630Z,12.52
2023-09-17T06:49:56.231Z,12.52
2023-09-17T06:50:25.621Z,12.52
2023-09-17T06:50:56.192Z,12.53
2023-09-17T06:51:25.622Z,12.52
2023-09-17T06:52:26.804Z,12.58
2023-09-17T06:53:25.627Z,12.26
2023-09-17T06:54:25.636Z,12.20
2023-09-17T06:55:25.672Z,12.20
2023-09-17T06:56:25.687Z,12.16
2023-09-17T07:06:25.746Z,12.25
2023-09-17T07:07:25.893Z,12.27
2023-09-17T07:11:34.227Z,12.65
2023-09-17T07:12:34.246Z,12.69
2023-09-17T07:13:34.280Z,12.69
2023-09-17T07:14:34.280Z,12.70
2023-09-17T07:15:34.281Z,12.70
2023-09-17T07:16:34.359Z,12.84
2023-09-17T07:17:34.513Z,12.84
2023-09-17T07:18:34.316Z,12.80
2023-09-17T07:19:34.361Z,12.80
2023-09-17T07:20:34.331Z,12.80
2023-09-17T07:21:34.345Z,12.80
2023-09-17T07:22:34.379Z,12.77
2023-09-17T07:23:34.351Z,12.79
2023-09-17T07:23:56.465Z,12.64
2023-09-17T07:24:25.931Z,12.41
2023-09-17T07:24:34.357Z,12.85
2023-09-17T07:24:56.476Z,12.66
2023-09-17T07:25:25.956Z,12.45
2023-09-17T07:25:34.384Z,12.85
2023-09-17T07:25:56.515Z,12.91
2023-09-17T07:26:25.962Z,12.46
2023-09-17T07:26:34.389Z,12.85
2023-09-17T07:26:56.480Z,12.95
2023-09-17T07:27:25.967Z,12.43
2023-09-17T07:27:34.415Z,12.82
2023-09-17T07:27:56.526Z,12.97
2023-09-17T07:28:27.414Z,12.49
2023-09-17T07:28:34.442Z,12.89
2023-09-17T07:29:26.000Z,12.46
2023-09-17T07:29:34.428Z,12.92
2023-09-17T07:30:26.016Z,12.51
2023-09-17T07:30:34.439Z,12.98
2023-09-17T07:31:26.064Z,12.42
2023-09-17T07:31:34.531Z,12.98
2023-09-17T07:32:26.003Z,12.39
2023-09-17T07:32:34.524Z,13.05
2023-09-17T07:33:26.010Z,12.41
2023-09-17T07:33:34.463Z,12.87
2023-09-17T07:34:26.046Z,12.35
2023-09-17T07:34:34.503Z,12.85
2023-09-17T07:35:26.028Z,12.57
2023-09-17T07:35:34.483Z,12.85
2023-09-17T07:36:26.090Z,12.57
2023-09-17T07:36:34.492Z,12.84
2023-09-17T07:36:56.574Z,12.84
2023-09-17T07:37:40.337Z,12.58
2023-09-17T07:37:50.075Z,12.82
2023-09-17T07:37:56.597Z,12.94
2023-09-17T07:38:26.100Z,12.61
2023-09-17T07:38:34.540Z,12.85
2023-09-17T07:38:56.586Z,12.95
2023-09-17T07:39:26.076Z,12.64
2023-09-17T07:39:34.504Z,12.96
2023-09-17T07:40:26.173Z,12.65
2023-09-17T07:40:34.765Z,12.96
2023-09-17T07:41:26.106Z,12.65
2023-09-17T07:41:34.529Z,12.93
2023-09-17T07:42:26.121Z,12.58
2023-09-17T07:42:34.581Z,12.95
2023-09-17T07:43:26.138Z,12.58
2023-09-17T07:44:26.180Z,12.61
2023-09-17T07:45:26.138Z,12.64
2023-09-17T07:46:26.199Z,12.64
2023-09-17T07:47:26.184Z,12.70
2023-09-17T07:48:26.193Z,12.74
2023-09-17T07:51:34.607Z,13.04
2023-09-17T07:52:34.674Z,12.95
2023-09-17T07:53:34.632Z,12.95
2023-09-17T07:54:34.652Z,12.95
2023-09-17T07:55:34.681Z,12.95
2023-09-17T07:56:34.673Z,12.95
2023-09-17T07:57:34.683Z,12.99
2023-09-17T07:58:34.725Z,13.03
2023-09-17T07:58:56.834Z,13.36
2023-09-17T07:59:34.696Z,13.03
2023-09-17T07:59:56.780Z,13.36
2023-09-17T08:00:34.719Z,13.03
2023-09-17T08:00:56.785Z,13.35
2023-09-17T08:01:34.814Z,13.03
2023-09-17T08:01:56.947Z,13.30
2023-09-17T08:02:35.053Z,13.03
2023-09-17T08:02:57.000Z,13.43
2023-09-17T08:03:57.543Z,13.68
2023-09-17T08:04:56.841Z,13.65
2023-09-17T08:12:56.892Z,13.75
2023-09-17T08:13:26.458Z,13.64
2023-09-17T08:13:56.940Z,13.75
2023-09-17T08:14:26.441Z,13.69
2023-09-17T08:14:56.895Z,13.75
2023-09-17T08:15:26.386Z,13.71
2023-09-17T08:15:56.896Z,13.70
2023-09-17T08:16:26.448Z,13.71
2023-09-17T08:16:57.020Z,13.64
2023-09-17T08:17:26.433Z,13.58
2023-09-17T08:17:56.910Z,13.64
2023-09-17T08:18:26.426Z,13.58
2023-09-17T08:18:56.918Z,13.70
2023-09-17T08:19:26.479Z,13.61
2023-09-17T08:19:56.947Z,13.78
2023-09-17T08:20:26.451Z,13.72
2023-09-17T08:20:56.944Z,13.78
2023-09-17T08:21:26.464Z,13.75
2023-09-17T08:21:56.949Z,13.78
2023-09-17T08:22:26.665Z,13.75
2023-09-17T08:22:57.027Z,13.78
2023-09-17T08:23:26.498Z,13.75
2023-09-17T08:27:57.039Z,13.74
2023-09-17T08:36:26.596Z,13.68
2023-09-17T08:37:26.635Z,13.54
2023-09-17T08:49:35.181Z,13.47
2023-09-17T08:50:26.710Z,13.60
2023-09-17T08:50:35.159Z,13.54
2023-09-17T08:51:35.177Z,13.54
2023-09-17T08:52:35.241Z,13.54
2023-09-17T08:53:26.706Z,13.54
2023-09-17T08:53:35.206Z,13.46
2023-09-17T08:54:26.707Z,13.54
2023-09-17T08:54:35.213Z,13.34
2023-09-17T08:55:26.758Z,13.30
2023-09-17T08:55:35.299Z,13.36
2023-09-17T08:56:26.744Z,13.25
2023-09-17T08:56:35.228Z,13.18
2023-09-17T08:57:26.822Z,13.25
2023-09-17T08:57:35.233Z,13.15
2023-09-17T08:58:26.779Z,13.25
2023-09-17T08:59:26.822Z,13.25
2023-09-17T09:09:57.383Z,13.25
2023-09-17T09:10:35.353Z,13.10
2023-09-17T09:11:35.346Z,13.09
2023-09-17T09:12:35.358Z,13.10
2023-09-17T09:13:35.408Z,13.10
2023-09-17T09:14:35.376Z,13.19
2023-09-17T09:15:35.432Z,13.16
2023-09-17T09:17:35.492Z,13.12
2023-09-17T09:18:35.416Z,13.15
2023-09-17T09:19:35.436Z,13.18
2023-09-17T09:20:35.424Z,13.18
2023-09-17T09:21:35.425Z,13.00
2023-09-17T09:22:35.457Z,13.00
2023-09-17T09:23:35.441Z,12.97
2023-09-17T09:24:35.445Z,12.98
2023-09-17T09:25:27.069Z,13.04
2023-09-17T09:25:35.475Z,13.78
2023-09-17T09:26:27.038Z,13.06
2023-09-17T09:26:35.467Z,13.60
2023-09-17T09:27:27.041Z,12.96
2023-09-17T09:27:35.474Z,13.60
2023-09-17T09:28:27.063Z,12.98
2023-09-17T09:28:35.524Z,13.60
2023-09-17T09:29:28.967Z,12.93
2023-09-17T09:29:35.518Z,13.59
2023-09-17T09:30:27.056Z,12.92
2023-09-17T09:30:35.526Z,13.59
2023-09-17T09:31:27.080Z,12.90
2023-09-17T09:31:35.626Z,13.60
2023-09-17T09:32:35.636Z,13.63
2023-09-17T09:32:57.662Z,13.32
2023-09-17T09:33:35.564Z,13.65
2023-09-17T09:33:57.539Z,13.29
2023-09-17T09:34:35.582Z,13.65
2023-09-17T09:34:57.570Z,13.35
2023-09-17T09:35:35.556Z,13.65
2023-09-17T09:35:57.564Z,13.30
2023-09-17T09:36:35.604Z,13.55
2023-09-17T09:36:57.577Z,13.30
2023-09-17T09:37:35.630Z,13.52
2023-09-17T09:37:57.610Z,13.30
2023-09-17T09:38:35.578Z,13.52
2023-09-17T09:38:57.583Z,13.32
2023-09-17T09:39:35.581Z,13.54
2023-09-17T09:39:57.586Z,13.16
2023-09-17T09:40:35.677Z,13.51
2023-09-17T09:40:57.637Z,13.21
2023-09-17T09:41:35.620Z,13.56
2023-09-17T09:42:35.704Z,13.56
2023-09-17T09:43:35.671Z,13.58
2023-09-17T09:44:35.660Z,13.83
2023-09-17T09:45:35.712Z,13.83
2023-09-17T09:46:35.695Z,13.64
2023-09-17T09:47:35.709Z,13.60
2023-09-17T09:48:27.182Z,13.78
2023-09-17T09:49:27.226Z,13.78
2023-09-17T09:50:27.205Z,13.78
2023-09-17T09:50:57.717Z,13.32
2023-09-17T09:51:27.218Z,13.88
2023-09-17T09:51:57.712Z,13.32
2023-09-17T09:52:27.328Z,13.90
2023-09-17T09:52:57.752Z,13.32
2023-09-17T09:53:57.717Z,13.22
2023-09-17T09:54:57.725Z,13.13
2023-09-17T09:55:57.778Z,13.40
2023-09-17T09:56:57.742Z,13.41
2023-09-17T09:57:57.822Z,13.32
2023-09-17T10:02:27.293Z,13.46
2023-09-17T10:02:35.795Z,13.56
2023-09-17T10:03:27.279Z,13.68
2023-09-17T10:03:35.793Z,13.58
2023-09-17T10:04:27.304Z,13.70
2023-09-17T10:05:27.330Z,13.57
2023-09-17T10:06:27.295Z,13.57
2023-09-17T10:06:57.806Z,13.27
2023-09-17T10:07:27.313Z,13.52
2023-09-17T10:07:57.859Z,13.11
2023-09-17T10:08:27.337Z,13.52
2023-09-17T10:08:57.833Z,13.11
2023-09-17T10:09:27.348Z,13.35
2023-09-17T10:09:57.842Z,13.04
2023-09-17T10:10:27.355Z,13.35
2023-09-17T10:10:57.886Z,13.07
2023-09-17T10:11:27.357Z,13.30
2023-09-17T10:11:57.866Z,13.07
2023-09-17T10:12:57.879Z,13.39
2023-09-17T10:13:57.940Z,13.39
2023-09-17T10:14:57.920Z,13.39
2023-09-17T10:25:27.438Z,11.99
2023-09-17T10:25:35.967Z,12.40
2023-09-17T10:26:27.453Z,12.03
2023-09-17T10:26:35.948Z,12.44
2023-09-17T10:27:27.458Z,12.23
2023-09-17T10:27:35.964Z,12.49
2023-09-17T10:28:27.450Z,12.36
2023-09-17T10:28:36.015Z,12.67
2023-09-17T10:29:27.468Z,12.36
2023-09-17T10:29:36.032Z,12.93
2023-09-17T10:30:27.481Z,12.63
2023-09-17T10:30:36.002Z,12.94
2023-09-17T10:31:27.584Z,12.63
2023-09-17T10:31:36.045Z,13.16
2023-09-17T10:32:27.543Z,12.74
2023-09-17T10:32:36.577Z,13.10
2023-09-17T10:33:27.541Z,12.74
2023-09-17T10:33:36.016Z,13.16
2023-09-17T10:34:27.539Z,12.77
2023-09-17T10:35:27.546Z,12.77
2023-09-17T10:36:27.551Z,12.81
2023-09-17T10:37:27.562Z,12.80
2023-09-17T10:38:27.595Z,12.82
2023-09-17T10:39:27.563Z,12.71
2023-09-17T10:40:36.068Z,13.07
2023-09-17T10:41:36.075Z,13.09
2023-09-17T10:42:36.084Z,13.25
2023-09-17T10:43:36.108Z,13.26
2023-09-17T10:44:36.091Z,13.30
2023-09-17T10:45:36.108Z,13.38
2023-09-17T10:46:36.160Z,13.38
2023-09-17T10:47:36.152Z,13.38
2023-09-17T10:48:36.116Z,13.17
2023-09-17T10:49:36.168Z,13.16
2023-09-17T10:50:36.131Z,13.08
2023-09-17T10:51:36.135Z,13.08
2023-09-17T10:52:36.166Z,13.08
2023-09-17T10:53:36.177Z,13.10
2023-09-17T10:54:36.199Z,13.16
2023-09-17T10:55:36.216Z,13.16
2023-09-17T10:56:36.212Z,12.93
2023-09-17T10:56:58.274Z,12.93
2023-09-17T10:57:36.211Z,12.89
2023-09-17T10:57:58.287Z,12.78
2023-09-17T10:58:36.245Z,12.79
2023-09-17T10:58:58.353Z,12.64
2023-09-17T10:59:36.219Z,12.70
2023-09-17T11:00:36.441Z,12.64
2023-09-17T11:03:36.302Z,13.68
2023-09-17T11:04:36.275Z,13.68
2023-09-17T11:05:36.285Z,13.68
2023-09-17T11:06:36.299Z,13.15
2023-09-17T11:07:27.788Z,12.14
2023-09-17T11:07:36.455Z,13.07
2023-09-17T11:08:27.792Z,12.04
2023-09-17T11:08:36.330Z,12.98
2023-09-17T11:09:27.810Z,12.09
2023-09-17T11:09:36.353Z,13.00
2023-09-17T11:10:32.438Z,12.20
2023-09-17T11:10:36.394Z,13.23
2023-09-17T11:11:27.827Z,12.40
2023-09-17T11:11:36.347Z,13.23
2023-09-17T11:12:27.845Z,12.52
2023-09-17T11:12:36.352Z,13.23
2023-09-17T11:13:27.857Z,12.44
2023-09-17T11:13:36.377Z,13.52
2023-09-17T11:14:27.865Z,12.26
2023-09-17T11:14:36.422Z,13.52
2023-09-17T11:15:27.866Z,12.28
2023-09-17T11:15:36.359Z,13.34
2023-09-17T11:15:58.444Z,12.66
2023-09-17T11:16:27.932Z,12.14
2023-09-17T11:16:37.406Z,13.07
2023-09-17T11:16:58.603Z,12.42
2023-09-17T11:17:36.451Z,13.00
2023-09-17T11:17:58.539Z,12.44
2023-09-17T11:18:36.394Z,13.00
2023-09-17T11:19:36.464Z,13.00
2023-09-17T11:20:36.425Z,13.02
2023-09-17T11:21:36.431Z,13.02
2023-09-17T11:22:36.439Z,13.27
2023-09-17T11:23:36.448Z,13.19
2023-09-17T11:24:36.448Z,13.08
2023-09-17T11:25:36.568Z,12.96
2023-09-17T11:26:36.453Z,12.98
2023-09-17T11:27:36.455Z,13.05
2023-09-17T11:27:58.530Z,12.44
2023-09-17T11:28:36.491Z,13.11
2023-09-17T11:28:58.581Z,12.49
2023-09-17T11:29:36.491Z,13.11
2023-09-17T11:30:36.517Z,13.11
2023-09-17T11:31:36.544Z,13.13
2023-09-17T11:32:36.563Z,12.90
2023-09-17T11:33:36.527Z,12.90
2023-09-17T11:34:36.573Z,12.90
2023-09-17T11:35:36.555Z,13.33
2023-09-17T11:36:36.555Z,13.39
2023-09-17T11:37:36.569Z,13.52
2023-09-17T11:37:58.675Z,12.45
2023-09-17T11:38:36.573Z,13.59
2023-09-17T11:38:58.623Z,12.66
2023-09-17T11:39:36.569Z,13.65
2023-09-17T11:39:58.637Z,12.70
2023-09-17T11:40:58.677Z,12.60
2023-09-17T11:41:58.645Z,12.60
2023-09-17T11:42:58.639Z,12.62
2023-09-17T11:43:58.690Z,12.79
2023-09-17T11:44:58.647Z,12.79
2023-09-17T11:45:58.673Z,12.79
2023-09-17T11:46:58.704Z,12.39
2023-09-17T11:47:58.714Z,12.41
2023-09-17T11:48:28.178Z,11.88
2023-09-17T11:48:58.703Z,12.20
2023-09-17T11:49:28.144Z,11.68
2023-09-17T11:49:58.745Z,12.20
2023-09-17T11:50:28.150Z,11.60
2023-09-17T11:50:58.717Z,12.12
2023-09-17T11:51:28.188Z,11.60
2023-09-17T11:53:37.703Z,13.09
2023-09-17T12:06:58.859Z,11.89
2023-09-17T12:07:29.011Z,11.53
2023-09-17T12:07:58.948Z,11.80
2023-09-17T12:08:28.298Z,11.53
2023-09-17T12:09:28.304Z,11.55
2023-09-17T12:10:36.866Z,12.73
2023-09-17T12:11:36.851Z,12.73
2023-09-17T12:12:36.884Z,12.73
2023-09-17T12:13:36.940Z,12.84
2023-09-17T12:14:36.890Z,12.69
2023-09-17T12:15:36.905Z,12.88
2023-09-17T12:16:37.016Z,12.86
2023-09-17T12:17:43.850Z,12.80
2023-09-17T12:23:28.389Z,12.20
2023-09-17T12:24:28.389Z,12.20
2023-09-17T12:25:28.396Z,12.29
2023-09-17T12:26:28.412Z,12.29
2023-09-17T12:27:28.412Z,12.70
2023-09-17T12:28:28.424Z,12.82
2023-09-17T12:29:28.432Z,12.82
2023-09-17T12:30:28.460Z,13.13
2023-09-17T12:31:28.437Z,13.06
2023-09-17T12:32:28.480Z,12.82
2023-09-17T12:33:28.458Z,12.75
2023-09-17T12:34:28.464Z,12.91
2023-09-17T12:35:28.471Z,12.91
2023-09-17T12:36:28.484Z,12.91
2023-09-17T12:39:37.110Z,12.94
2023-09-17T12:40:37.133Z,12.85
2023-09-17T12:41:41.319Z,12.67
2023-09-17T12:42:37.260Z,12.67
2023-09-17T12:43:37.180Z,12.42
2023-09-17T12:44:37.162Z,12.42
2023-09-17T12:45:37.172Z,12.52
2023-09-17T12:46:37.258Z,12.52
2023-09-17T12:46:59.258Z,12.56